createdAt,value
2022-11-28T00:00:29.552Z,15.50
2022-11-28T00:02:59.185Z,14.73
2022-11-28T00:05:28.991Z,14.20
2022-11-28T00:08:01.137Z,13.90
2022-11-28T00:10:30.676Z,14.85
2022-11-28T00:13:00.136Z,14.60
2022-11-28T00:15:29.828Z,13.70
2022-11-28T00:17:59.388Z,14.02
2022-11-28T00:20:28.868Z,12.93
2022-11-28T00:23:00.965Z,13.35
2022-11-28T00:25:30.421Z,13.63
2022-11-28T00:27:59.937Z,13.60
2022-11-28T00:30:29.426Z,13.40
2022-11-28T00:32:58.905Z,13.40
2022-11-28T00:35:28.394Z,13.35
2022-11-28T00:37:57.860Z,13.90
2022-11-28T00:40:29.923Z,12.75
2022-11-28T00:42:59.390Z,13.00
2022-11-28T00:45:28.934Z,14.52
2022-11-28T00:47:58.435Z,14.57
2022-11-28T00:50:27.986Z,14.20
2022-11-28T00:52:57.453Z,14.27
2022-11-28T00:55:29.506Z,12.85
2022-11-28T00:57:59.003Z,13.38
2022-11-28T01:00:28.484Z,13.10
2022-11-28T01:02:58.027Z,13.32
2022-11-28T01:05:27.517Z,14.85
2022-11-28T01:07:57.013Z,12.15
2022-11-28T01:10:29.096Z,13.57
2022-11-28T01:12:58.544Z,13.70
2022-11-28T01:15:28.112Z,14.40
2022-11-28T01:17:57.564Z,12.63
2022-11-28T01:20:27.042Z,13.30
2022-11-28T01:22:56.498Z,12.63
2022-11-28T01:25:25.973Z,13.35
2022-11-28T01:27:58.076Z,12.55
2022-11-28T01:30:27.549Z,13.55
2022-11-28T01:32:57.225Z,13.85
2022-11-28T01:35:26.713Z,13.70
2022-11-28T01:37:56.152Z,12.65
2022-11-28T01:40:25.898Z,12.55
2022-11-28T01:42:57.997Z,13.70
2022-11-28T01:45:27.907Z,14.60
2022-11-28T01:47:58.369Z,13.52
2022-11-28T01:50:27.807Z,13.35
2022-11-28T01:52:58.941Z,14.48
2022-11-28T01:58:02.065Z,13.38
2022-11-28T02:00:31.638Z,14.65
2022-11-28T02:03:03.518Z,13.18
2022-11-28T02:05:33.045Z,13.88
2022-11-28T02:08:02.748Z,12.25
2022-11-28T02:10:35.473Z,13.95
2022-11-28T02:13:20.678Z,13.35
2022-11-28T02:15:57.786Z,14.20
2022-11-28T02:18:35.687Z,13.65
2022-11-28T02:21:37.378Z,12.27
2022-11-28T02:24:39.589Z,13.85
2022-11-28T02:27:23.960Z,12.90
2022-11-28T02:30:15.125Z,13.63
2022-11-28T02:33:03.445Z,13.02
2022-11-28T02:35:36.817Z,13.52
2022-11-28T02:38:11.023Z,13.93
2022-11-28T02:40:41.834Z,14.38
2022-11-28T02:43:15.456Z,13.35
2022-11-28T02:45:49.557Z,14.18
2022-11-28T02:48:25.439Z,13.15
2022-11-28T02:50:57.172Z,13.93
2022-11-28T02:53:27.417Z,13.50
2022-11-28T02:55:57.761Z,13.67
2022-11-28T02:58:27.187Z,13.68
2022-11-28T03:00:56.969Z,13.68
2022-11-28T03:03:36.551Z,14.13
2022-11-28T03:06:09.706Z,14.95
2022-11-28T03:08:48.768Z,13.38
2022-11-28T03:11:20.121Z,14.48
2022-11-28T03:13:54.297Z,13.75
2022-11-28T03:16:28.028Z,14.52
2022-11-28T03:19:04.793Z,13.23
2022-11-28T03:21:39.390Z,13.38
2022-11-28T03:24:13.074Z,14.15
2022-11-28T03:26:47.597Z,14.48
2022-11-28T03:29:19.145Z,15.40
2022-11-28T03:31:50.847Z,13.63
2022-11-28T03:34:23.825Z,13.80
2022-11-28T03:36:54.728Z,14.38
2022-11-28T03:39:26.512Z,15.88
2022-11-28T03:41:57.759Z,13.70
2022-11-28T03:44:29.064Z,14.70
2022-11-28T03:46:59.337Z,14.15
2022-11-28T03:49:32.982Z,13.77
2022-11-28T03:52:05.664Z,15.48
2022-11-28T03:54:36.982Z,15.85
2022-11-28T03:57:10.445Z,15.40
2022-11-28T03:59:40.884Z,14.25
2022-11-28T04:02:18.173Z,14.15
2022-11-28T04:04:54.167Z,16.30
2022-11-28T04:07:26.592Z,14.80
2022-11-28T04:10:00.666Z,16.00
2022-11-28T04:12:42.718Z,14.48
2022-11-28T04:15:14.803Z,15.38
2022-11-28T04:17:48.897Z,14.88
2022-11-28T04:20:23.588Z,16.52
2022-11-28T04:22:55.512Z,15.70
2022-11-28T04:25:25.385Z,15.35
2022-11-28T04:27:57.385Z,15.55
2022-11-28T04:30:26.890Z,14.38
2022-11-28T04:32:59.152Z,14.98
2022-11-28T04:35:32.827Z,15.48
2022-11-28T04:38:02.505Z,15.52
2022-11-28T04:40:32.970Z,14.98
2022-11-28T04:43:04.638Z,18.60
2022-11-28T04:45:36.115Z,14.95
2022-11-28T04:48:05.729Z,14.88
2022-11-28T04:50:40.507Z,16.10
2022-11-28T04:53:12.485Z,15.90
2022-11-28T04:55:44.695Z,15.60
2022-11-28T04:58:15.996Z,17.70
2022-11-28T05:00:45.672Z,14.77
2022-11-28T05:03:15.212Z,16.08
2022-11-28T05:05:48.773Z,15.43
2022-11-28T05:08:18.400Z,17.27
2022-11-28T05:10:47.893Z,15.73
2022-11-28T05:13:17.930Z,14.88
2022-11-28T05:15:47.441Z,15.48
2022-11-28T05:18:16.905Z,15.57
2022-11-28T05:20:48.943Z,16.52
2022-11-28T05:23:18.420Z,16.25
2022-11-28T05:25:47.857Z,16.02
2022-11-28T05:28:17.326Z,16.88
2022-11-28T05:30:46.780Z,15.95
2022-11-28T05:33:16.361Z,16.38
2022-11-28T05:35:45.827Z,16.08
2022-11-28T05:38:17.876Z,16.83
2022-11-28T05:40:47.334Z,16.00
2022-11-28T05:43:16.865Z,17.33
2022-11-28T05:45:46.504Z,15.32
2022-11-28T05:48:16.016Z,14.95
2022-11-28T05:50:45.505Z,15.75
2022-11-28T05:53:17.592Z,16.52
2022-11-28T05:55:47.091Z,17.08
2022-11-28T05:58:16.606Z,16.90
2022-11-28T06:00:46.060Z,16.08
2022-11-28T06:03:15.558Z,17.23
2022-11-28T06:05:45.596Z,16.50
2022-11-28T06:08:17.750Z,16.13
2022-11-28T06:10:47.180Z,17.42
2022-11-28T06:13:16.658Z,16.63
2022-11-28T06:15:46.502Z,16.80
2022-11-28T06:18:15.974Z,17.70
2022-11-28T06:20:45.428Z,18.17
2022-11-28T06:23:17.447Z,17.10
2022-11-28T06:25:46.933Z,16.40
2022-11-28T06:28:16.419Z,16.15
2022-11-28T06:30:46.248Z,17.70
2022-11-28T06:33:15.702Z,16.60
2022-11-28T06:35:45.197Z,16.75
2022-11-28T06:38:17.242Z,16.50
2022-11-28T06:40:46.707Z,17.23
2022-11-28T06:43:16.482Z,16.48
2022-11-28T06:45:45.993Z,16.00
2022-11-28T06:48:15.472Z,16.50
2022-11-28T06:50:44.989Z,15.70
2022-11-28T06:53:17.228Z,15.48
2022-11-28T06:55:46.979Z,16.15
2022-11-28T06:58:16.490Z,16.92
2022-11-28T07:00:45.951Z,16.80
2022-11-28T07:03:15.432Z,15.77
2022-11-28T07:05:44.901Z,17.45
2022-11-28T07:08:17.253Z,16.10
2022-11-28T07:10:46.772Z,17.25
2022-11-28T07:13:16.225Z,15.23
2022-11-28T07:15:51.400Z,15.80
2022-11-28T07:18:20.886Z,15.95
2022-11-28T07:20:50.299Z,15.20
2022-11-28T07:23:22.397Z,15.60
2022-11-28T07:25:51.854Z,14.73
2022-11-28T07:28:23.380Z,15.48
2022-11-28T07:30:53.090Z,15.98
2022-11-28T07:33:22.574Z,15.98
2022-11-28T07:35:52.006Z,14.68
2022-11-28T07:38:24.063Z,15.45
2022-11-28T07:40:53.504Z,15.48
2022-11-28T07:43:22.955Z,15.98
2022-11-28T07:46:00.932Z,14.65
2022-11-28T07:48:31.082Z,14.98
2022-11-28T07:51:00.532Z,14.85
2022-11-28T07:53:32.561Z,14.20
2022-11-28T07:56:04.106Z,15.45
2022-11-28T07:58:33.665Z,15.13
2022-11-28T08:01:03.089Z,16.30
2022-11-28T08:03:32.566Z,17.65
2022-11-28T08:06:03.372Z,14.55
2022-11-28T08:08:35.459Z,13.73
2022-11-28T08:11:05.673Z,14.98
2022-11-28T08:13:35.161Z,16.13
2022-11-28T08:16:06.938Z,16.17
2022-11-28T08:18:36.604Z,15.15
2022-11-28T08:21:07.318Z,15.05
2022-11-28T08:23:39.502Z,14.30
2022-11-28T08:26:10.507Z,15.48
2022-11-28T08:28:39.968Z,15.82
2022-11-28T08:31:14.718Z,14.75
2022-11-28T08:33:44.837Z,16.95
2022-11-28T08:36:15.021Z,15.05
2022-11-28T08:39:02.977Z,14.77
2022-11-28T08:41:36.510Z,15.55
2022-11-28T08:44:06.162Z,15.88
2022-11-28T08:46:36.745Z,14.75
2022-11-28T08:49:06.220Z,15.18
2022-11-28T08:51:35.692Z,15.82
2022-11-28T08:54:07.937Z,15.63
2022-11-28T08:56:37.542Z,15.35
2022-11-28T08:59:07.220Z,14.70
2022-11-28T09:01:36.736Z,15.63
2022-11-28T09:04:07.175Z,15.32
2022-11-28T09:06:36.793Z,15.55
2022-11-28T09:09:09.225Z,15.57
2022-11-28T09:11:39.682Z,15.15
2022-11-28T09:14:09.813Z,16.00
2022-11-28T09:16:40.562Z,17.27
2022-11-28T09:19:10.801Z,15.38
2022-11-28T09:21:40.706Z,17.13
2022-11-28T09:24:14.091Z,15.05
2022-11-28T09:26:43.647Z,15.35
2022-11-28T09:29:13.470Z,16.15
2022-11-28T09:31:47.175Z,16.67
2022-11-28T09:34:17.098Z,16.17
2022-11-28T09:36:46.559Z,14.98
2022-11-28T09:39:18.955Z,15.75
2022-11-28T09:41:59.152Z,15.95
2022-11-28T09:44:29.738Z,16.15
2022-11-28T09:47:01.945Z,14.95
2022-11-28T09:49:40.595Z,16.60
2022-11-28T09:52:16.525Z,17.67
2022-11-28T09:54:54.991Z,25.73
2022-11-28T09:57:28.802Z,17.88
2022-11-28T09:59:58.257Z,18.60
2022-11-28T10:02:29.528Z,18.15
2022-11-28T10:05:05.273Z,19.60
2022-11-28T10:07:39.265Z,17.48
2022-11-28T10:10:18.130Z,19.45
2022-11-28T10:12:51.177Z,21.17
2022-11-28T10:15:38.518Z,20.17
2022-11-28T10:18:14.235Z,18.08
2022-11-28T10:20:45.011Z,20.55
2022-11-28T10:23:17.501Z,17.77
2022-11-28T10:25:51.253Z,21.20
2022-11-28T10:28:22.404Z,20.08
2022-11-28T10:33:25.994Z,19.58
2022-11-28T10:35:56.774Z,19.08
2022-11-28T10:38:27.827Z,21.73
2022-11-28T10:43:39.744Z,19.92
2022-11-28T10:46:21.931Z,17.98
2022-11-28T10:48:53.784Z,17.88
2022-11-28T10:51:29.420Z,18.08
2022-11-28T10:54:05.926Z,18.23
2022-11-28T10:56:41.034Z,21.55
2022-11-28T10:59:15.614Z,19.27
2022-11-28T11:01:50.008Z,20.15
2022-11-28T11:04:21.347Z,21.10
2022-11-28T11:09:38.485Z,20.38
2022-11-28T11:12:11.028Z,21.75
2022-11-28T11:14:43.076Z,21.60
2022-11-28T11:17:18.634Z,21.83
2022-11-28T11:19:48.136Z,22.17
2022-11-28T11:22:20.414Z,20.65
2022-11-28T11:25:06.882Z,19.83
2022-11-28T11:27:39.525Z,21.48
2022-11-28T11:30:20.843Z,20.77
2022-11-28T11:32:51.759Z,20.98
2022-11-28T11:37:52.905Z,23.60
2022-11-28T11:40:28.968Z,20.30
2022-11-28T11:43:02.023Z,20.98
2022-11-28T11:45:33.399Z,21.85
2022-11-28T11:48:03.046Z,31.48
2022-11-28T11:50:33.413Z,22.38
2022-11-28T11:53:03.977Z,21.63
2022-11-28T11:55:34.218Z,22.95
2022-11-28T11:58:06.336Z,21.63
2022-11-28T12:00:39.007Z,21.30
2022-11-28T12:03:13.993Z,22.83
2022-11-28T12:06:13.175Z,22.50
2022-11-28T12:08:42.874Z,22.52
2022-11-28T12:11:16.411Z,23.17
2022-11-28T12:13:48.485Z,23.73
2022-11-28T12:16:41.622Z,23.80
2022-11-28T12:19:17.337Z,23.25
2022-11-28T12:21:53.538Z,23.73
2022-11-28T12:24:23.756Z,22.58
2022-11-28T12:26:54.372Z,23.30
2022-11-28T12:29:47.135Z,24.02
2022-11-28T12:32:23.390Z,26.23
2022-11-28T12:35:00.236Z,23.38
2022-11-28T12:38:02.733Z,21.23
2022-11-28T12:40:32.639Z,23.13
2022-11-28T12:43:09.048Z,22.55
2022-11-28T12:45:45.273Z,20.58
2022-11-28T12:48:21.802Z,22.05
2022-11-28T12:50:52.899Z,24.25
2022-11-28T12:56:12.354Z,23.38
2022-11-28T12:58:43.637Z,25.60
2022-11-28T13:01:25.201Z,25.00
2022-11-28T13:04:01.078Z,22.95
2022-11-28T13:06:34.255Z,28.25
2022-11-28T13:09:21.325Z,25.45
2022-11-28T13:11:55.765Z,22.98
2022-11-28T13:14:31.407Z,26.30
2022-11-28T13:17:15.157Z,24.33
2022-11-28T13:19:47.638Z,26.55
2022-11-28T13:22:20.390Z,23.67
2022-11-28T13:24:53.023Z,24.17
2022-11-28T13:27:27.608Z,24.85
2022-11-28T13:30:01.676Z,24.63
2022-11-28T13:32:37.603Z,24.55
2022-11-28T13:35:07.335Z,25.00
2022-11-28T13:43:07.231Z,25.67
2022-11-28T13:45:39.760Z,23.73
2022-11-28T13:51:32.972Z,22.27
2022-11-28T13:54:41.792Z,21.85
2022-11-28T13:57:18.997Z,22.13
2022-11-28T13:59:51.026Z,21.60
2022-11-28T14:02:23.066Z,23.60
2022-11-28T14:04:52.552Z,23.15
2022-11-28T14:07:29.547Z,24.25
2022-11-28T14:10:10.477Z,22.67
2022-11-28T14:12:41.867Z,21.58
2022-11-28T14:15:17.561Z,21.08
2022-11-28T14:17:58.221Z,21.42
2022-11-28T14:20:30.286Z,22.40
2022-11-28T14:23:12.028Z,24.35
2022-11-28T14:25:43.404Z,23.52
2022-11-28T14:28:20.753Z,23.92
2022-11-28T14:30:50.548Z,24.58
2022-11-28T14:33:21.475Z,23.60
2022-11-28T14:36:09.081Z,22.38
2022-11-28T14:38:51.592Z,24.85
2022-11-28T14:41:21.052Z,23.63
2022-11-28T14:43:50.700Z,24.60
2022-11-28T14:46:34.180Z,24.05
2022-11-28T14:49:24.145Z,23.42
2022-11-28T14:52:40.599Z,24.85
2022-11-28T14:55:21.221Z,26.02
2022-11-28T14:57:57.518Z,26.25
2022-11-28T15:00:28.073Z,27.65
2022-11-28T15:03:11.611Z,29.50
2022-11-28T15:05:46.861Z,26.70
2022-11-28T15:08:40.592Z,23.27
2022-11-28T15:11:24.124Z,25.05
2022-11-28T15:14:02.943Z,25.92
2022-11-28T15:16:32.816Z,27.63
2022-11-28T15:19:06.095Z,25.15
2022-11-28T15:21:44.707Z,26.48
2022-11-28T15:24:20.289Z,26.98
2022-11-28T15:26:57.218Z,27.20
2022-11-28T15:29:28.051Z,28.02
2022-11-28T15:31:58.596Z,28.02
2022-11-28T15:34:29.673Z,34.47
2022-11-28T15:39:34.923Z,26.70
2022-11-28T15:42:08.123Z,25.65
2022-11-28T15:44:37.742Z,28.50
2022-11-28T15:47:07.439Z,27.88
2022-11-28T15:49:40.637Z,27.92
2022-11-28T15:52:10.128Z,25.02
2022-11-28T15:54:41.263Z,25.35
2022-11-28T15:57:23.371Z,24.38
2022-11-28T15:59:52.866Z,24.17
2022-11-28T16:02:26.481Z,23.25
2022-11-28T16:04:57.820Z,23.27
2022-11-28T16:07:27.322Z,24.88
2022-11-28T16:10:00.541Z,22.55
2022-11-28T16:12:32.717Z,25.40
2022-11-28T16:15:05.191Z,23.60
2022-11-28T16:17:36.003Z,26.00
2022-11-28T16:20:05.510Z,24.75
2022-11-28T16:22:37.112Z,26.17
2022-11-28T16:25:23.229Z,29.52
2022-11-28T16:27:57.464Z,30.10
2022-11-28T16:30:34.733Z,32.42
2022-11-28T16:33:04.249Z,34.10
2022-11-28T16:35:37.788Z,33.08
2022-11-28T16:38:08.696Z,32.85
2022-11-28T16:40:38.138Z,31.40
2022-11-28T16:43:21.368Z,31.35
2022-11-28T16:45:59.741Z,34.63
2022-11-28T16:48:30.133Z,39.30
2022-11-28T16:51:32.304Z,34.13
2022-11-28T16:54:02.019Z,33.88
2022-11-28T16:56:45.304Z,32.65
2022-11-28T16:59:18.120Z,32.10
2022-11-28T17:01:49.103Z,32.97
2022-11-28T17:04:22.205Z,30.77
2022-11-28T17:06:51.869Z,31.38
2022-11-28T17:09:21.522Z,32.50
2022-11-28T17:11:53.809Z,32.13
2022-11-28T17:14:25.867Z,31.02
2022-11-28T17:16:55.299Z,35.90
2022-11-28T17:19:24.779Z,32.75
2022-11-28T17:21:55.052Z,33.78
2022-11-28T17:24:25.825Z,30.95
2022-11-28T17:26:55.781Z,30.85
2022-11-28T17:29:28.596Z,27.42
2022-11-28T17:31:59.032Z,28.40
2022-11-28T17:34:30.812Z,27.83
2022-11-28T17:37:00.544Z,26.58
2022-11-28T17:39:30.294Z,27.20
2022-11-28T17:41:59.861Z,25.77
2022-11-28T17:44:32.648Z,25.23
2022-11-28T17:47:02.803Z,28.67
2022-11-28T17:49:32.483Z,27.23
2022-11-28T17:52:01.924Z,31.20
2022-11-28T17:54:31.380Z,29.27
2022-11-28T17:57:00.857Z,34.65
2022-11-28T17:59:34.329Z,42.00
2022-11-28T18:02:03.876Z,40.65
2022-11-28T18:04:33.344Z,45.45
2022-11-28T18:07:02.898Z,48.50
2022-11-28T18:09:32.364Z,57.40
2022-11-28T18:12:01.865Z,60.08
2022-11-28T18:14:39.353Z,82.65
2022-11-28T18:17:09.197Z,79.57
2022-11-28T18:19:38.632Z,51.42
2022-11-28T18:22:08.901Z,53.33
2022-11-28T18:24:38.329Z,40.75
2022-11-28T18:27:07.786Z,38.40
2022-11-28T18:29:39.823Z,38.72
2022-11-28T18:32:09.344Z,38.92
2022-11-28T18:34:38.807Z,41.45
2022-11-28T18:37:08.435Z,41.33
2022-11-28T18:39:37.878Z,41.67
2022-11-28T18:42:07.627Z,47.88
2022-11-28T18:44:39.718Z,45.47
2022-11-28T18:47:09.162Z,41.20
2022-11-28T18:49:38.632Z,38.88
2022-11-28T18:52:08.146Z,39.38
2022-11-28T18:54:38.496Z,39.60
2022-11-28T18:57:09.239Z,38.72
2022-11-28T18:59:43.463Z,38.60
2022-11-28T19:02:18.150Z,37.65
2022-11-28T19:04:47.583Z,35.43
2022-11-28T19:07:17.325Z,34.78
2022-11-28T19:09:47.281Z,35.05
2022-11-28T19:12:16.740Z,36.05
2022-11-28T19:14:48.809Z,30.98
2022-11-28T19:17:18.893Z,33.40
2022-11-28T19:19:48.369Z,32.10
2022-11-28T19:22:17.891Z,35.05
2022-11-28T19:24:47.352Z,33.60
2022-11-28T19:27:16.818Z,33.40
2022-11-28T19:29:48.912Z,35.22
2022-11-28T19:32:18.427Z,35.83
2022-11-28T19:34:52.258Z,35.63
2022-11-28T19:37:21.751Z,35.65
2022-11-28T19:39:51.202Z,33.85
2022-11-28T19:42:20.699Z,33.92
2022-11-28T19:44:52.752Z,32.97
2022-11-28T19:47:23.014Z,34.95
2022-11-28T19:49:52.506Z,32.40
2022-11-28T19:52:22.006Z,29.50
2022-11-28T19:54:51.844Z,36.67
2022-11-28T19:57:21.332Z,31.90
2022-11-28T19:59:53.381Z,32.25
2022-11-28T20:02:23.584Z,31.98
2022-11-28T20:04:53.111Z,29.93
2022-11-28T20:07:22.724Z,35.95
2022-11-28T20:09:52.560Z,39.47
2022-11-28T20:12:22.340Z,35.03
2022-11-28T20:14:54.401Z,29.88
2022-11-28T20:17:23.967Z,34.67
2022-11-28T20:19:53.419Z,28.80
2022-11-28T20:22:24.764Z,29.13
2022-11-28T20:24:54.304Z,32.50
2022-11-28T20:27:23.820Z,32.65
2022-11-28T20:29:55.894Z,33.83
2022-11-28T20:32:25.411Z,32.83
2022-11-28T20:34:54.908Z,34.00
2022-11-28T20:37:24.557Z,32.63
2022-11-28T20:39:54.277Z,35.28
2022-11-28T20:42:23.809Z,36.08
2022-11-28T20:44:55.909Z,39.97
2022-11-28T20:47:25.440Z,39.72
2022-11-28T20:49:54.933Z,45.90
2022-11-28T20:52:24.386Z,41.58
2022-11-28T20:54:53.867Z,34.67
2022-11-28T20:57:23.470Z,36.53
2022-11-28T20:59:56.808Z,37.45
2022-11-28T21:02:26.494Z,36.65
2022-11-28T21:04:56.243Z,37.20
2022-11-28T21:07:27.052Z,35.55
2022-11-28T21:09:59.881Z,32.38
2022-11-28T21:12:29.347Z,33.40
2022-11-28T21:15:02.053Z,32.65
2022-11-28T21:17:31.550Z,30.13
2022-11-28T21:20:01.062Z,29.40
2022-11-28T21:22:32.890Z,32.00
2022-11-28T21:25:02.425Z,32.13
2022-11-28T21:27:31.884Z,35.65
2022-11-28T21:30:04.045Z,36.10
2022-11-28T21:32:33.511Z,38.03
2022-11-28T21:35:04.732Z,39.00
2022-11-28T21:37:34.609Z,36.53
2022-11-28T21:40:04.092Z,38.90
2022-11-28T21:42:34.286Z,41.67
2022-11-28T21:45:06.815Z,40.10
2022-11-28T21:47:36.740Z,39.50
2022-11-28T21:50:06.336Z,45.28
2022-11-28T21:52:35.823Z,41.70
2022-11-28T21:55:05.337Z,48.00
2022-11-28T21:57:35.053Z,51.72
2022-11-28T22:00:16.605Z,54.17
2022-11-28T22:03:01.116Z,52.85
2022-11-28T22:05:32.860Z,54.10
2022-11-28T22:08:02.492Z,46.65
2022-11-28T22:10:32.326Z,49.08
2022-11-28T22:13:01.816Z,49.13
2022-11-28T22:15:33.879Z,51.95
2022-11-28T22:18:03.371Z,44.08
2022-11-28T22:20:32.860Z,45.58
2022-11-28T22:23:02.395Z,47.25
2022-11-28T22:25:31.947Z,46.50
2022-11-28T22:28:01.453Z,46.67
2022-11-28T22:30:33.574Z,46.28
2022-11-28T22:33:03.081Z,44.45
2022-11-28T22:35:33.149Z,40.88
2022-11-28T22:38:02.646Z,43.45
2022-11-28T22:40:32.179Z,40.97
2022-11-28T22:43:01.722Z,39.72
2022-11-28T22:45:33.888Z,37.78
2022-11-28T22:48:03.468Z,39.28
2022-11-28T22:50:36.020Z,44.63
2022-11-28T22:53:09.445Z,42.38
2022-11-28T22:55:38.980Z,42.80
2022-11-28T22:58:08.724Z,47.55
2022-11-28T23:00:40.834Z,46.03
2022-11-28T23:03:10.508Z,48.58
2022-11-28T23:05:41.383Z,48.40
2022-11-28T23:08:14.149Z,49.13
2022-11-28T23:10:43.644Z,41.25
2022-11-28T23:13:13.166Z,40.08
2022-11-28T23:15:51.194Z,44.63
2022-11-28T23:18:22.217Z,37.47
2022-11-28T23:20:51.711Z,37.17
2022-11-28T23:23:21.269Z,37.97
2022-11-28T23:25:50.761Z,40.42
2022-11-28T23:28:20.295Z,43.50
2022-11-28T23:30:52.373Z,44.13
2022-11-28T23:33:21.915Z,48.25
2022-11-28T23:35:51.395Z,46.70
2022-11-28T23:38:20.969Z,47.55
2022-11-28T23:40:50.455Z,45.35
2022-11-28T23:43:19.961Z,43.33
2022-11-28T23:45:52.035Z,42.05
2022-11-28T23:48:21.587Z,39.15
2022-11-28T23:50:51.100Z,40.25
2022-11-28T23:53:20.640Z,46.15
2022-11-28T23:55:50.147Z,43.58
2022-11-28T23:58:19.640Z,42.08
